createdAt,value
2017-05-31T00:01:12.685Z,43.19
2017-05-31T00:02:58.854Z,43.19
2017-05-31T00:04:45.190Z,42.97
2017-05-31T00:06:31.382Z,43.00
2017-05-31T00:08:17.513Z,42.97
2017-05-31T00:10:03.861Z,42.71
2017-05-31T00:11:49.982Z,42.90
2017-05-31T00:13:36.170Z,42.97
2017-05-31T00:15:22.534Z,42.97
2017-05-31T00:17:08.662Z,42.88
2017-05-31T00:18:54.768Z,43.19
2017-05-31T00:20:41.148Z,42.88
2017-05-31T00:22:27.264Z,43.17
2017-05-31T00:24:14.393Z,43.07
2017-05-31T00:26:00.542Z,43.07
2017-05-31T00:27:47.461Z,42.97
2017-05-31T00:29:33.580Z,43.17
2017-05-31T00:31:19.923Z,43.07
2017-05-31T00:33:06.198Z,42.88
2017-05-31T00:34:52.320Z,42.88
2017-05-31T00:36:38.653Z,43.17
2017-05-31T00:38:25.764Z,42.88
2017-05-31T00:40:12.886Z,42.88
2017-05-31T00:41:59.241Z,42.78
2017-05-31T00:43:45.361Z,42.78
2017-05-31T00:45:31.480Z,42.78
2017-05-31T00:47:17.827Z,42.88
2017-05-31T00:49:04.566Z,42.80
2017-05-31T00:50:50.690Z,42.88
2017-05-31T00:52:37.048Z,42.97
2017-05-31T00:54:23.271Z,42.59
2017-05-31T00:56:09.404Z,42.68
2017-05-31T00:57:55.882Z,42.49
2017-05-31T00:59:42.025Z,42.49
2017-05-31T01:01:28.136Z,42.30
2017-05-31T01:03:14.585Z,42.49
2017-05-31T01:05:00.707Z,42.59
2017-05-31T01:06:46.827Z,42.40
2017-05-31T01:08:33.227Z,42.40
2017-05-31T01:10:19.399Z,42.49
2017-05-31T01:12:05.512Z,42.49
2017-05-31T01:13:51.856Z,42.49
2017-05-31T01:15:37.973Z,42.40
2017-05-31T01:17:24.082Z,42.30
2017-05-31T01:19:10.568Z,42.30
2017-05-31T01:20:56.760Z,42.59
2017-05-31T01:22:42.870Z,41.82
2017-05-31T01:24:29.259Z,41.82
2017-05-31T01:26:15.397Z,41.91
2017-05-31T01:28:01.570Z,42.10
2017-05-31T01:29:24.681Z,42.10
2017-05-31T01:31:10.942Z,42.10
2017-05-31T01:32:57.057Z,42.10
2017-05-31T01:34:43.159Z,42.10
2017-05-31T01:36:29.511Z,42.20
2017-05-31T01:38:15.623Z,42.20
2017-05-31T01:40:02.749Z,42.10
2017-05-31T01:41:50.099Z,42.20
2017-05-31T01:43:36.208Z,42.40
2017-05-31T01:45:22.336Z,41.72
2017-05-31T01:47:08.708Z,41.62
2017-05-31T01:48:54.825Z,41.72
2017-05-31T01:50:40.990Z,41.52
2017-05-31T01:52:27.501Z,41.72
2017-05-31T01:54:13.634Z,41.42
2017-05-31T01:55:59.774Z,41.33
2017-05-31T01:57:45.901Z,41.52
2017-05-31T01:59:32.733Z,41.33
2017-05-31T02:01:18.905Z,41.33
2017-05-31T02:03:05.289Z,41.33
2017-05-31T02:04:51.417Z,41.42
2017-05-31T02:06:37.528Z,41.04
2017-05-31T02:08:23.876Z,41.14
2017-05-31T02:10:10.013Z,41.04
2017-05-31T02:11:57.128Z,40.94
